createdAt,value
2022-12-03T00:02:57.440Z,102038.78
2022-12-03T00:08:12.262Z,102034.34
2022-12-03T00:13:27.469Z,102028.28
2022-12-03T00:18:43.245Z,102025.50
2022-12-03T00:23:58.238Z,102021.22
2022-12-03T00:29:13.699Z,102023.13
2022-12-03T00:34:28.970Z,102012.19
2022-12-03T00:39:44.269Z,102013.25
2022-12-03T00:44:59.207Z,102004.94
2022-12-03T00:50:14.547Z,101997.56
2022-12-03T00:55:30.207Z,102005.59
2022-12-03T01:00:45.211Z,101995.56
2022-12-03T01:06:01.271Z,101998.63
2022-12-03T01:11:16.204Z,102000.31
2022-12-03T01:16:31.659Z,101987.53
2022-12-03T01:21:47.056Z,101991.56
2022-12-03T01:27:02.011Z,101990.78
2022-12-03T01:32:17.261Z,101989.06
2022-12-03T01:37:32.246Z,101991.84
2022-12-03T01:42:47.200Z,101979.50
2022-12-03T01:48:02.556Z,101976.72
2022-12-03T01:53:18.225Z,101981.50
2022-12-03T01:58:33.295Z,101975.19
2022-12-03T02:03:48.051Z,101975.97
2022-12-03T02:09:03.565Z,101970.88
2022-12-03T02:14:19.212Z,101978.44
2022-12-03T02:19:34.254Z,101982.75
2022-12-03T02:24:49.364Z,101973.66
2022-12-03T02:30:04.253Z,101973.66
2022-12-03T02:35:19.268Z,101970.88
2022-12-03T02:40:34.580Z,101968.09
2022-12-03T02:45:50.215Z,101960.72
2022-12-03T02:51:05.284Z,101972.16
2022-12-03T02:56:20.307Z,101965.03
2022-12-03T03:01:35.366Z,101965.81
2022-12-03T03:06:50.535Z,101961.78
2022-12-03T03:12:06.539Z,101961.78
2022-12-03T03:17:22.331Z,101952.75
2022-12-03T03:22:37.260Z,101953.47
2022-12-03T03:27:52.257Z,101953.94
2022-12-03T03:33:07.222Z,101959.50
2022-12-03T03:38:22.343Z,101953.94
2022-12-03T03:43:37.232Z,101946.88
2022-12-03T03:48:52.266Z,101946.88
2022-12-03T03:54:07.578Z,101939.78
2022-12-03T03:59:23.267Z,101935.00
2022-12-03T04:04:38.286Z,101924.69
2022-12-03T04:09:53.339Z,101930.69
2022-12-03T04:15:08.593Z,101921.63
2022-12-03T04:20:24.279Z,101923.16
2022-12-03T04:25:39.258Z,101921.63
2022-12-03T04:30:54.277Z,101917.91
2022-12-03T04:36:09.586Z,101913.13
2022-12-03T04:41:25.280Z,101915.41
2022-12-03T04:46:40.569Z,101915.41
2022-12-03T04:51:56.308Z,101914.94
2022-12-03T04:57:11.241Z,101914.19
2022-12-03T05:02:26.333Z,101916.94
2022-12-03T05:07:41.325Z,101925.28
2022-12-03T05:12:56.355Z,101918.47
2022-12-03T05:18:11.080Z,101926.81
2022-12-03T05:23:26.323Z,101917.25
2022-12-03T05:28:41.295Z,101913.19
2022-12-03T05:33:56.346Z,101908.91
2022-12-03T05:39:11.497Z,101910.44
2022-12-03T05:44:27.342Z,101904.41
2022-12-03T05:49:42.308Z,101904.72
2022-12-03T05:54:57.220Z,101900.69
2022-12-03T06:00:12.597Z,101899.72
2022-12-03T06:05:28.353Z,101889.22
2022-12-03T06:10:43.336Z,101892.25
2022-12-03T06:15:58.572Z,101891.78
2022-12-03T06:21:14.276Z,101879.47
2022-12-03T06:26:29.576Z,101873.53
2022-12-03T06:31:46.490Z,101879.09
2022-12-03T06:37:02.234Z,101874.31
2022-12-03T06:42:17.240Z,101868.94
2022-12-03T06:47:32.271Z,101871.91
2022-12-03T06:52:47.277Z,101867.81
2022-12-03T06:58:02.328Z,101870.00
2022-12-03T07:03:17.340Z,101873.72
2022-12-03T07:08:32.603Z,101885.78
2022-12-03T07:13:48.337Z,101877.91
2022-12-03T07:19:03.424Z,101883.97
2022-12-03T07:24:18.315Z,101879.66
2022-12-03T07:29:33.666Z,101880.91
2022-12-03T07:34:49.309Z,101879.38
2022-12-03T07:40:05.303Z,101883.56
2022-12-03T07:45:20.267Z,101890.84
2022-12-03T07:50:35.559Z,101892.38
2022-12-03T07:55:51.622Z,101901.16
2022-12-03T08:01:07.449Z,101900.09
2022-12-03T08:06:22.291Z,101895.31
2022-12-03T08:11:37.082Z,101896.56
2022-12-03T08:16:53.302Z,101899.44
2022-12-03T08:22:08.317Z,101884.13
2022-12-03T08:27:23.624Z,101877.66
2022-12-03T08:32:39.334Z,101883.00
2022-12-03T08:37:55.564Z,101877.47
2022-12-03T08:43:11.243Z,101877.53
2022-12-03T08:48:26.250Z,101881.84
2022-12-03T08:53:41.251Z,101874.31
2022-12-03T08:58:56.298Z,101877.63
2022-12-03T09:04:11.706Z,101874.69
2022-12-03T09:09:27.249Z,101863.09
2022-12-03T09:14:42.298Z,101865.88
2022-12-03T09:19:58.280Z,101870.94
2022-12-03T09:25:13.024Z,101867.41
2022-12-03T09:30:28.279Z,101858.59
2022-12-03T09:35:43.240Z,101862.88
2022-12-03T09:40:58.253Z,101867.22
2022-12-03T09:46:13.644Z,101859.19
2022-12-03T09:51:29.579Z,101862.22
2022-12-03T09:56:45.252Z,101863.28
2022-12-03T10:02:00.729Z,101863.09
2022-12-03T10:07:16.269Z,101862.31
2022-12-03T10:12:31.289Z,101858.00
2022-12-03T10:17:46.066Z,101866.63
2022-12-03T10:23:01.621Z,101857.53
2022-12-03T10:28:17.299Z,101853.50
2022-12-03T10:33:32.263Z,101850.25
2022-12-03T10:38:47.298Z,101843.16
2022-12-03T10:44:02.226Z,101832.06
2022-12-03T10:49:17.054Z,101831.38
2022-12-03T10:54:32.346Z,101825.44
2022-12-03T10:59:47.599Z,101817.88
2022-12-03T11:05:04.255Z,101803.97
2022-12-03T11:10:19.266Z,101807.81
2022-12-03T11:15:34.360Z,101800.72
2022-12-03T11:20:49.073Z,101797.88
2022-12-03T11:26:04.268Z,101794.28
2022-12-03T11:31:19.587Z,101779.31
2022-12-03T11:37:00.441Z,101776.28
2022-12-03T11:42:10.252Z,101771.69
2022-12-03T11:47:25.331Z,101767.13
2022-12-03T11:52:40.312Z,101769.63
2022-12-03T11:57:55.261Z,101759.97
2022-12-03T12:03:11.644Z,101755.41
2022-12-03T12:08:27.404Z,101760.94
2022-12-03T12:13:42.318Z,101739.69
2022-12-03T12:18:57.580Z,101743.69
2022-12-03T12:24:13.269Z,101733.00
2022-12-03T12:29:28.318Z,101720.97
2022-12-03T12:34:43.304Z,101722.22
2022-12-03T12:39:58.735Z,101709.09
2022-12-03T12:45:14.601Z,101713.13
2022-12-03T12:50:30.404Z,101707.28
2022-12-03T12:55:45.272Z,101699.94
2022-12-03T13:01:00.728Z,101702.16
2022-12-03T13:06:18.253Z,101705.13
2022-12-03T13:11:33.260Z,101696.25
2022-12-03T13:16:48.674Z,101702.34
2022-12-03T13:22:04.367Z,101689.28
2022-12-03T13:27:19.571Z,101694.50
2022-12-03T13:32:35.288Z,101693.75
2022-12-03T13:38:27.363Z,101685.91
2022-12-03T13:43:44.502Z,101677.56
2022-12-03T13:49:02.098Z,101674.06
2022-12-03T13:54:18.379Z,101669.25
2022-12-03T13:59:33.253Z,101669.25
2022-12-03T14:04:48.512Z,101657.91
2022-12-03T14:10:04.270Z,101653.31
2022-12-03T14:15:20.618Z,101649.03
2022-12-03T14:20:36.352Z,101657.06
2022-12-03T14:25:51.281Z,101649.69
2022-12-03T14:31:06.247Z,101651.44
2022-12-03T14:36:21.252Z,101653.16
2022-12-03T14:41:36.281Z,101650.09
2022-12-03T14:46:56.609Z,101649.34
2022-12-03T14:52:13.011Z,101655.34
2022-12-03T14:57:28.290Z,101654.13
2022-12-03T15:02:43.711Z,101656.59
2022-12-03T15:07:59.404Z,101642.47
2022-12-03T15:13:14.283Z,101642.75
2022-12-03T15:18:29.284Z,101639.19
2022-12-03T15:23:44.297Z,101645.25
2022-12-03T15:28:59.280Z,101645.25
2022-12-03T15:34:20.443Z,101645.69
2022-12-03T15:39:37.275Z,101640.47
2022-12-03T15:44:52.344Z,101648.03
2022-12-03T15:50:07.253Z,101648.78
2022-12-03T15:55:22.555Z,101655.56
2022-12-03T16:00:38.309Z,101656.34
2022-12-03T16:05:53.073Z,101662.66
2022-12-03T16:11:08.649Z,101659.88
2022-12-03T16:16:24.691Z,101652.31
2022-12-03T16:21:41.299Z,101650.78
2022-12-03T16:26:56.584Z,101649.25
2022-12-03T16:32:12.281Z,101643.91
2022-12-03T16:37:27.403Z,101650.88
2022-12-03T16:42:42.330Z,101644.28
2022-12-03T16:47:57.276Z,101643.56
2022-12-03T16:53:12.371Z,101639.72
2022-12-03T16:58:27.326Z,101634.63
2022-12-03T17:03:42.318Z,101635.41
2022-12-03T17:08:57.097Z,101625.47
2022-12-03T17:14:12.312Z,101631.13
2022-12-03T17:19:28.602Z,101631.59
2022-12-03T17:24:44.323Z,101622.53
2022-12-03T17:29:59.676Z,101623.00
2022-12-03T17:35:15.296Z,101619.47
2022-12-03T17:40:30.576Z,101621.50
2022-12-03T17:45:46.353Z,101608.84
2022-12-03T17:51:01.311Z,101613.09
2022-12-03T17:56:16.317Z,101618.06
2022-12-03T18:01:31.646Z,101611.97
2022-12-03T18:06:47.300Z,101615.66
2022-12-03T18:12:02.568Z,101610.63
2022-12-03T18:17:18.681Z,101602.31
2022-12-03T18:22:34.334Z,101598.00
2022-12-03T18:27:49.353Z,101596.47
2022-12-03T18:33:05.626Z,101602.50
2022-12-03T18:38:21.286Z,101590.19
2022-12-03T18:43:36.409Z,101592.66
2022-12-03T18:48:51.334Z,101597.44
2022-12-03T18:54:08.438Z,101596.19
2022-12-03T18:59:23.301Z,101597.44
2022-12-03T19:04:38.582Z,101596.19
2022-12-03T19:09:54.976Z,101589.13
2022-12-03T19:15:10.358Z,101597.91
2022-12-03T19:20:25.059Z,101593.59
2022-12-03T19:25:40.297Z,101592.09
2022-12-03T19:30:55.302Z,101588.84
2022-12-03T19:36:10.094Z,101586.06
2022-12-03T19:41:25.390Z,101572.97
2022-12-03T19:46:40.382Z,101568.69
2022-12-03T19:51:55.334Z,101563.91
2022-12-03T19:57:10.316Z,101567.44
2022-12-03T20:02:25.374Z,101554.81
2022-12-03T20:07:40.587Z,101559.59
2022-12-03T20:12:56.347Z,101557.34
2022-12-03T20:18:11.343Z,101562.88
2022-12-03T20:23:26.303Z,101571.94
2022-12-03T20:28:41.116Z,101574.72
2022-12-03T20:33:56.049Z,101560.56
2022-12-03T20:39:11.117Z,101559.78
2022-12-03T20:44:26.351Z,101550.47
2022-12-03T20:49:41.652Z,101546.16
2022-12-03T20:54:57.284Z,101550.94
2022-12-03T21:00:12.287Z,101553.41
2022-12-03T21:05:27.332Z,101537.28
2022-12-03T21:10:42.347Z,101538.50
2022-12-03T21:15:57.074Z,101532.22
2022-12-03T21:21:12.786Z,101527.91
2022-12-03T21:26:28.330Z,101530.69
2022-12-03T21:31:43.302Z,101531.19
2022-12-03T21:36:58.444Z,101524.09
2022-12-03T21:42:18.764Z,101533.53
2022-12-03T21:47:49.439Z,101536.19
2022-12-03T21:53:04.433Z,101524.91
2022-12-03T21:58:19.207Z,101532.22
2022-12-03T22:03:34.434Z,101536.06
2022-12-03T22:08:49.388Z,101532.59
2022-12-03T22:14:04.337Z,101521.31
2022-12-03T22:19:19.323Z,101519.09
2022-12-03T22:24:34.345Z,101524.44
2022-12-03T22:29:49.091Z,101517.19
2022-12-03T22:35:04.698Z,101512.66
2022-12-03T22:40:20.363Z,101515.75
2022-12-03T22:45:35.660Z,101507.69
2022-12-03T22:50:51.394Z,101502.91
2022-12-03T22:56:07.358Z,101505.00
2022-12-03T23:01:22.297Z,101496.66
2022-12-03T23:06:37.408Z,101496.19
2022-12-03T23:11:52.370Z,101488.59
2022-12-03T23:17:07.332Z,101496.94
2022-12-03T23:22:22.308Z,101499.97
2022-12-03T23:27:37.300Z,101497.50
2022-12-03T23:32:52.317Z,101484.38
2022-12-03T23:38:07.701Z,101495.75
2022-12-03T23:43:23.281Z,101498.53
2022-12-03T23:48:38.645Z,101498.06
2022-12-03T23:53:54.368Z,101497.28
2022-12-03T23:59:09.724Z,101490.50
